sensor_id;sensor_type;location;lat;lon;timestamp;pressure;altitude;pressure_sealevel;temperature;humidity
8280;BME280;8335;42.646;23.380;2023-03-21T00:00:56;144768.22;;;12.91;57.27
8280;BME280;8335;42.646;23.380;2023-03-21T00:03:25;144770.72;;;12.92;56.96
8280;BME280;8335;42.646;23.380;2023-03-21T00:05:52;144768.22;;;12.91;57.31
8280;BME280;8335;42.646;23.380;2023-03-21T00:08:19;144755.81;;;12.86;57.17
8280;BME280;8335;42.646;23.380;2023-03-21T00:10:47;144768.22;;;12.91;57.42
8280;BME280;8335;42.646;23.380;2023-03-21T00:13:14;144762.00;;;12.88;57.31
8280;BME280;8335;42.646;23.380;2023-03-21T00:15:42;144757.03;;;12.86;57.87
8280;BME280;8335;42.646;23.380;2023-03-21T00:18:15;144738.38;;;12.79;57.88
8280;BME280;8335;42.646;23.380;2023-03-21T00:20:43;144739.59;;;12.79;58.10
8280;BME280;8335;42.646;23.380;2023-03-21T00:23:16;144748.31;;;12.83;57.67
8280;BME280;8335;42.646;23.380;2023-03-21T00:25:43;144738.38;;;12.79;58.23
8280;BME280;8335;42.646;23.380;2023-03-21T00:28:09;144724.66;;;12.73;58.65
8280;BME280;8335;42.646;23.380;2023-03-21T00:30:38;144709.72;;;12.67;58.74
8280;BME280;8335;42.646;23.380;2023-03-21T00:33:05;144708.47;;;12.66;58.87
8280;BME280;8335;42.646;23.380;2023-03-21T00:35:32;144691.03;;;12.59;59.07
8280;BME280;8335;42.646;23.380;2023-03-21T00:38:00;144688.56;;;12.58;58.38
8280;BME280;8335;42.646;23.380;2023-03-21T00:40:27;144671.13;;;12.51;58.79
8280;BME280;8335;42.646;23.380;2023-03-21T00:42:54;144639.97;;;12.38;58.76
8280;BME280;8335;42.646;23.380;2023-03-21T00:45:21;144622.56;;;12.31;59.36
8280;BME280;8335;42.646;23.380;2023-03-21T00:47:47;144612.56;;;12.27;59.89
8280;BME280;8335;42.646;23.380;2023-03-21T00:50:15;144593.91;;;12.20;60.27
8280;BME280;8335;42.646;23.380;2023-03-21T00:52:42;144578.97;;;12.13;60.35
8280;BME280;8335;42.646;23.380;2023-03-21T00:55:12;144547.88;;;12.01;60.29
8280;BME280;8335;42.646;23.380;2023-03-21T00:57:40;144542.88;;;11.99;61.11
8280;BME280;8335;42.646;23.380;2023-03-21T01:00:09;144539.16;;;11.97;61.01
8280;BME280;8335;42.646;23.380;2023-03-21T01:02:36;144525.44;;;11.92;62.11
8280;BME280;8335;42.646;23.380;2023-03-21T01:05:08;144506.78;;;11.84;62.29
8280;BME280;8335;42.646;23.380;2023-03-21T01:07:37;144493.03;;;11.78;62.34
8280;BME280;8335;42.646;23.380;2023-03-21T01:10:04;144476.91;;;11.72;62.83
8280;BME280;8335;42.646;23.380;2023-03-21T01:12:32;144458.19;;;11.64;63.36
8280;BME280;8335;42.646;23.380;2023-03-21T01:14:59;144443.31;;;11.58;63.51
8280;BME280;8335;42.646;23.380;2023-03-21T01:17:26;144430.88;;;11.53;63.71
8280;BME280;8335;42.646;23.380;2023-03-21T01:19:53;144408.47;;;11.44;64.17
8280;BME280;8335;42.646;23.380;2023-03-21T01:22:19;144408.47;;;11.44;64.57
8280;BME280;8335;42.646;23.380;2023-03-21T01:24:46;144388.53;;;11.36;64.61
8280;BME280;8335;42.646;23.380;2023-03-21T01:27:13;144378.63;;;11.32;64.76
8280;BME280;8335;42.646;23.380;2023-03-21T01:29:41;144357.47;;;11.23;64.94
8280;BME280;8335;42.646;23.380;2023-03-21T01:32:08;144342.53;;;11.17;65.15
8280;BME280;8335;42.646;23.380;2023-03-21T01:34:35;144333.81;;;11.13;65.76
8280;BME280;8335;42.646;23.380;2023-03-21T01:37:01;144327.63;;;11.11;65.93
8280;BME280;8335;42.646;23.380;2023-03-21T01:39:28;144316.41;;;11.06;66.21
8280;BME280;8335;42.646;23.380;2023-03-21T01:41:57;144311.44;;;11.04;66.63
8280;BME280;8335;42.646;23.380;2023-03-21T01:44:23;144300.22;;;10.99;66.32
8280;BME280;8335;42.646;23.380;2023-03-21T01:46:52;144299.00;;;10.99;66.61
8280;BME280;8335;42.646;23.380;2023-03-21T01:49:21;144299.00;;;10.99;66.78
8280;BME280;8335;42.646;23.380;2023-03-21T01:51:52;144282.81;;;10.92;66.96
8280;BME280;8335;42.646;23.380;2023-03-21T01:54:22;144271.66;;;10.88;67.06
8280;BME280;8335;42.646;23.380;2023-03-21T01:56:53;144259.22;;;10.83;67.04
8280;BME280;8335;42.646;23.380;2023-03-21T01:59:25;144274.16;;;10.89;67.41
8280;BME280;8335;42.646;23.380;2023-03-21T02:01:58;144267.94;;;10.86;67.64
8280;BME280;8335;42.646;23.380;2023-03-21T02:04:26;144265.41;;;10.85;67.54
8280;BME280;8335;42.646;23.380;2023-03-21T02:06:57;144260.47;;;10.83;67.43
8280;BME280;8335;42.646;23.380;2023-03-21T02:09:30;144256.75;;;10.82;67.45
8280;BME280;8335;42.646;23.380;2023-03-21T02:11:58;144262.94;;;10.84;67.50
8280;BME280;8335;42.646;23.380;2023-03-21T02:14:25;144192.06;;;10.55;67.33
8280;BME280;8335;42.646;23.380;2023-03-21T02:17:01;144240.56;;;10.75;67.49
8280;BME280;8335;42.646;23.380;2023-03-21T02:20:00;144238.09;;;10.74;67.54
8280;BME280;8335;42.646;23.380;2023-03-21T02:22:59;144229.38;;;10.70;67.19
8280;BME280;8335;42.646;23.380;2023-03-21T02:25:51;144223.16;;;10.68;67.14
8280;BME280;8335;42.646;23.380;2023-03-21T02:28:24;144214.44;;;10.64;67.25
8280;BME280;8335;42.646;23.380;2023-03-21T02:31:29;144213.19;;;10.64;67.45
8280;BME280;8335;42.646;23.380;2023-03-21T02:34:24;144205.75;;;10.61;67.30
8280;BME280;8335;42.646;23.380;2023-03-21T02:37:09;144194.56;;;10.56;67.17
8280;BME280;8335;42.646;23.380;2023-03-21T02:39:47;144185.88;;;10.53;67.15
8280;BME280;8335;42.646;23.380;2023-03-21T02:42:20;144172.19;;;10.47;67.49
8280;BME280;8335;42.646;23.380;2023-03-21T02:44:51;144185.88;;;10.53;67.40
8280;BME280;8335;42.646;23.380;2023-03-21T02:47:24;144184.66;;;10.52;67.19
8280;BME280;8335;42.646;23.380;2023-03-21T02:49:55;144205.75;;;10.61;66.61
8280;BME280;8335;42.646;23.380;2023-03-21T02:52:27;144195.78;;;10.57;66.69
8280;BME280;8335;42.646;23.380;2023-03-21T02:54:56;144168.47;;;10.45;67.12
8280;BME280;8335;42.646;23.380;2023-03-21T02:57:24;144153.56;;;10.39;68.02
8280;BME280;8335;42.646;23.380;2023-03-21T02:59:51;144111.28;;;10.22;68.33
8280;BME280;8335;42.646;23.380;2023-03-21T03:02:25;144101.31;;;10.18;68.92
8280;BME280;8335;42.646;23.380;2023-03-21T03:04:52;144093.88;;;10.15;69.03
8280;BME280;8335;42.646;23.380;2023-03-21T03:07:32;144087.63;;;10.12;68.93
8280;BME280;8335;42.646;23.380;2023-03-21T03:13:16;144071.47;;;10.06;68.99
8280;BME280;8335;42.646;23.380;2023-03-21T03:15:58;144071.47;;;10.06;69.18
8280;BME280;8335;42.646;23.380;2023-03-21T03:18:35;144069.00;;;10.05;69.47
8280;BME280;8335;42.646;23.380;2023-03-21T03:21:09;144073.94;;;10.07;70.04
8280;BME280;8335;42.646;23.380;2023-03-21T03:23:46;144045.41;;;9.95;69.53
8280;BME280;8335;42.646;23.380;2023-03-21T03:26:18;144009.38;;;9.80;70.23
8280;BME280;8335;42.646;23.380;2023-03-21T03:28:50;143970.88;;;9.64;70.44
8280;BME280;8335;42.646;23.380;2023-03-21T03:31:22;143975.84;;;9.67;70.47
8280;BME280;8335;42.646;23.380;2023-03-21T03:33:51;143985.75;;;9.71;71.03
8280;BME280;8335;42.646;23.380;2023-03-21T03:36:22;143982.03;;;9.69;71.15
8280;BME280;8335;42.646;23.380;2023-03-21T03:38:53;143990.75;;;9.73;71.19
8280;BME280;8335;42.646;23.380;2023-03-21T03:41:26;143980.78;;;9.69;71.24
8280;BME280;8335;42.646;23.380;2023-03-21T03:43:55;144000.66;;;9.77;71.19
8280;BME280;8335;42.646;23.380;2023-03-21T03:46:26;144011.84;;;9.81;71.15
8280;BME280;8335;42.646;23.380;2023-03-21T03:48:55;144004.38;;;9.78;71.42
8280;BME280;8335;42.646;23.380;2023-03-21T03:51:27;144008.13;;;9.80;71.38
8280;BME280;8335;42.646;23.380;2023-03-21T03:54:00;143994.47;;;9.74;71.72
8280;BME280;8335;42.646;23.380;2023-03-21T03:56:29;143991.97;;;9.73;72.03
8280;BME280;8335;42.646;23.380;2023-03-21T03:58:56;143985.75;;;9.71;72.40
8280;BME280;8335;42.646;23.380;2023-03-21T04:01:23;143973.34;;;9.65;72.58
8280;BME280;8335;42.646;23.380;2023-03-21T04:03:50;143970.88;;;9.64;73.11
8280;BME280;8335;42.646;23.380;2023-03-21T04:06:18;143965.88;;;9.62;72.89
8280;BME280;8335;42.646;23.380;2023-03-21T04:08:46;143959.69;;;9.60;73.14
8280;BME280;8335;42.646;23.380;2023-03-21T04:11:14;143946.00;;;9.54;73.41
8280;BME280;8335;42.646;23.380;2023-03-21T04:13:41;143938.56;;;9.51;73.29
8280;BME280;8335;42.646;23.380;2023-03-21T04:16:09;143933.56;;;9.49;73.23
8280;BME280;8335;42.646;23.380;2023-03-21T04:18:37;143921.19;;;9.44;73.16
8280;BME280;8335;42.646;23.380;2023-03-21T04:21:08;143900.03;;;9.35;73.43
8280;BME280;8335;42.646;23.380;2023-03-21T04:23:37;143907.50;;;9.38;73.42
8280;BME280;8335;42.646;23.380;2023-03-21T04:26:05;143903.81;;;9.37;73.74
8280;BME280;8335;42.646;23.380;2023-03-21T04:28:33;143895.09;;;9.33;73.39
8280;BME280;8335;42.646;23.380;2023-03-21T04:31:04;143902.56;;;9.36;73.16
8280;BME280;8335;42.646;23.380;2023-03-21T04:33:31;143898.78;;;9.35;72.93
8280;BME280;8335;42.646;23.380;2023-03-21T04:36:03;143902.56;;;9.36;72.85
8280;BME280;8335;42.646;23.380;2023-03-21T04:38:31;143897.56;;;9.34;72.69
8280;BME280;8335;42.646;23.380;2023-03-21T04:40:58;143911.22;;;9.40;73.62
8280;BME280;8335;42.646;23.380;2023-03-21T04:43:26;143913.72;;;9.41;73.80
8280;BME280;8335;42.646;23.380;2023-03-21T04:45:55;143926.13;;;9.46;72.98
8280;BME280;8335;42.646;23.380;2023-03-21T04:48:22;143943.53;;;9.53;72.90
8280;BME280;8335;42.646;23.380;2023-03-21T04:50:49;143964.63;;;9.62;72.51
8280;BME280;8335;42.646;23.380;2023-03-21T04:53:16;143999.41;;;9.76;71.66
8280;BME280;8335;42.646;23.380;2023-03-21T04:55:43;144031.72;;;9.89;70.93
8280;BME280;8335;42.646;23.380;2023-03-21T04:58:10;144072.72;;;10.06;70.21
8280;BME280;8335;42.646;23.380;2023-03-21T05:00:37;144092.63;;;10.14;69.78
8280;BME280;8335;42.646;23.380;2023-03-21T05:03:06;144106.25;;;10.20;69.39
8280;BME280;8335;42.646;23.380;2023-03-21T05:05:34;144116.28;;;10.24;69.31
8280;BME280;8335;42.646;23.380;2023-03-21T05:08:01;144123.72;;;10.27;69.01
8280;BME280;8335;42.646;23.380;2023-03-21T05:10:28;144132.44;;;10.31;68.61
8280;BME280;8335;42.646;23.380;2023-03-21T05:12:54;144134.91;;;10.32;69.14
8280;BME280;8335;42.646;23.380;2023-03-21T05:15:21;144137.41;;;10.33;69.34
8280;BME280;8335;42.646;23.380;2023-03-21T05:17:48;144131.19;;;10.30;69.34
8280;BME280;8335;42.646;23.380;2023-03-21T05:20:16;144143.59;;;10.35;69.23
8280;BME280;8335;42.646;23.380;2023-03-21T05:22:43;144144.88;;;10.36;69.00
8280;BME280;8335;42.646;23.380;2023-03-21T05:25:11;144137.41;;;10.33;68.62
8280;BME280;8335;42.646;23.380;2023-03-21T05:27:38;144141.13;;;10.34;68.77
8280;BME280;8335;42.646;23.380;2023-03-21T05:30:11;144158.50;;;10.41;68.43
8280;BME280;8335;42.646;23.380;2023-03-21T05:32:38;144163.53;;;10.43;67.61
8280;BME280;8335;42.646;23.380;2023-03-21T05:35:06;144168.47;;;10.45;67.59
8280;BME280;8335;42.646;23.380;2023-03-21T05:37:35;144195.78;;;10.57;67.51
8280;BME280;8335;42.646;23.380;2023-03-21T05:40:03;144219.44;;;10.66;67.15
8280;BME280;8335;42.646;23.380;2023-03-21T05:42:31;144241.81;;;10.75;66.29
8280;BME280;8335;42.646;23.380;2023-03-21T05:44:58;144255.50;;;10.81;66.25
8280;BME280;8335;42.646;23.380;2023-03-21T05:47:25;144285.34;;;10.93;66.05
8280;BME280;8335;42.646;23.380;2023-03-21T05:49:54;144321.41;;;11.08;65.44
8280;BME280;8335;42.646;23.380;2023-03-21T05:52:21;144351.22;;;11.20;65.39
8280;BME280;8335;42.646;23.380;2023-03-21T05:54:50;144379.84;;;11.32;64.74
8280;BME280;8335;42.646;23.380;2023-03-21T05:57:17;144417.16;;;11.47;64.23
8280;BME280;8335;42.646;23.380;2023-03-21T05:59:44;144478.16;;;11.72;63.87
8280;BME280;8335;42.646;23.380;2023-03-21T06:02:10;144522.97;;;11.91;63.47
8280;BME280;8335;42.646;23.380;2023-03-21T06:04:37;144559.06;;;12.05;62.84
8280;BME280;8335;42.646;23.380;2023-03-21T06:07:04;144596.38;;;12.21;62.05
8280;BME280;8335;42.646;23.380;2023-03-21T06:09:31;144633.78;;;12.36;61.57
8280;BME280;8335;42.646;23.380;2023-03-21T06:12:00;144669.88;;;12.51;61.05
8280;BME280;8335;42.646;23.380;2023-03-21T06:14:26;144705.97;;;12.65;60.33
8280;BME280;8335;42.646;23.380;2023-03-21T06:16:53;144737.06;;;12.78;59.66
8280;BME280;8335;42.646;23.380;2023-03-21T06:19:20;144770.72;;;12.92;60.48
8280;BME280;8335;42.646;23.380;2023-03-21T06:21:47;144786.91;;;12.99;60.58
8280;BME280;8335;42.646;23.380;2023-03-21T06:24:15;144785.66;;;12.98;60.26
8280;BME280;8335;42.646;23.380;2023-03-21T06:26:43;144851.72;;;13.25;58.69
8280;BME280;8335;42.646;23.380;2023-03-21T06:29:11;144866.69;;;13.31;57.75
8280;BME280;8335;42.646;23.380;2023-03-21T06:31:38;144895.31;;;13.43;57.84
8280;BME280;8335;42.646;23.380;2023-03-21T06:34:05;144911.50;;;13.49;57.67
8280;BME280;8335;42.646;23.380;2023-03-21T06:36:32;144911.50;;;13.49;57.67
8280;BME280;8335;42.646;23.380;2023-03-21T06:38:58;144879.16;;;13.36;57.90
8280;BME280;8335;42.646;23.380;2023-03-21T06:41:25;144857.94;;;13.28;58.35
8280;BME280;8335;42.646;23.380;2023-03-21T06:43:52;144876.63;;;13.35;59.26
8280;BME280;8335;42.646;23.380;2023-03-21T06:46:20;144871.66;;;13.33;58.14
8280;BME280;8335;42.646;23.380;2023-03-21T06:48:47;144874.16;;;13.34;57.96
8280;BME280;8335;42.646;23.380;2023-03-21T06:51:14;144899.09;;;13.44;57.71
8280;BME280;8335;42.646;23.380;2023-03-21T06:53:41;144943.91;;;13.63;57.39
8280;BME280;8335;42.646;23.380;2023-03-21T06:56:09;145017.44;;;13.93;56.93
8280;BME280;8335;42.646;23.380;2023-03-21T06:58:36;145069.78;;;14.14;56.21
8280;BME280;8335;42.646;23.380;2023-03-21T07:01:04;145137.13;;;14.42;55.04
8280;BME280;8335;42.646;23.380;2023-03-21T07:03:33;145263.19;;;14.93;53.40
8280;BME280;8335;42.646;23.380;2023-03-21T07:06:03;145392.91;;;15.46;52.10
8280;BME280;8335;42.646;23.380;2023-03-21T07:08:31;145515.28;;;15.96;50.30
8280;BME280;8335;42.646;23.380;2023-03-21T07:10:58;145683.88;;;16.65;49.51
8280;BME280;8335;42.646;23.380;2023-03-21T07:13:25;145837.56;;;17.27;47.84
8280;BME280;8335;42.646;23.380;2023-03-21T07:15:52;145892.53;;;17.50;46.13
8280;BME280;8335;42.646;23.380;2023-03-21T07:18:19;145860.06;;;17.37;45.40
8280;BME280;8335;42.646;23.380;2023-03-21T07:20:48;145895.06;;;17.51;45.30
8280;BME280;8335;42.646;23.380;2023-03-21T07:23:16;145890.03;;;17.49;44.67
8280;BME280;8335;42.646;23.380;2023-03-21T07:25:43;145821.31;;;17.21;45.21
8280;BME280;8335;42.646;23.380;2023-03-21T07:28:09;145822.53;;;17.21;45.60
8280;BME280;8335;42.646;23.380;2023-03-21T07:30:36;145795.09;;;17.10;45.68
8280;BME280;8335;42.646;23.380;2023-03-21T07:33:03;145773.84;;;17.01;45.75
8280;BME280;8335;42.646;23.380;2023-03-21T07:35:30;145763.84;;;16.97;45.75
8280;BME280;8335;42.646;23.380;2023-03-21T07:37:58;145736.38;;;16.86;45.90
8280;BME280;8335;42.646;23.380;2023-03-21T07:40:25;145696.38;;;16.70;46.26
8280;BME280;8335;42.646;23.380;2023-03-21T07:42:52;145701.41;;;16.72;46.33
8280;BME280;8335;42.646;23.380;2023-03-21T07:45:18;145651.38;;;16.51;47.42
8280;BME280;8335;42.646;23.380;2023-03-21T07:47:48;145657.63;;;16.54;47.76
8280;BME280;8335;42.646;23.380;2023-03-21T07:50:15;145666.38;;;16.58;47.45
8280;BME280;8335;42.646;23.380;2023-03-21T07:52:42;145632.66;;;16.44;47.81
8280;BME280;8335;42.646;23.380;2023-03-21T07:55:10;145633.91;;;16.44;47.96
8280;BME280;8335;42.646;23.380;2023-03-21T07:57:37;145685.13;;;16.65;47.57
8280;BME280;8335;42.646;23.380;2023-03-21T08:00:05;145735.09;;;16.86;47.75
8280;BME280;8335;42.646;23.380;2023-03-21T08:02:33;145786.31;;;17.06;46.94
8280;BME280;8335;42.646;23.380;2023-03-21T08:05:00;145817.56;;;17.19;47.49
8280;BME280;8335;42.646;23.380;2023-03-21T08:07:28;145823.84;;;17.22;47.44
8280;BME280;8335;42.646;23.380;2023-03-21T08:09:55;145822.53;;;17.21;47.23
8280;BME280;8335;42.646;23.380;2023-03-21T08:12:23;145823.84;;;17.22;47.40
8280;BME280;8335;42.646;23.380;2023-03-21T08:14:50;145845.06;;;17.30;47.46
8280;BME280;8335;42.646;23.380;2023-03-21T08:17:17;145863.81;;;17.38;46.97
8280;BME280;8335;42.646;23.380;2023-03-21T08:19:44;145883.81;;;17.46;46.26
8280;BME280;8335;42.646;23.380;2023-03-21T08:22:10;145915.06;;;17.59;46.26
8280;BME280;8335;42.646;23.380;2023-03-21T08:24:38;145952.59;;;17.74;45.94
8280;BME280;8335;42.646;23.380;2023-03-21T08:27:04;145977.59;;;17.84;44.82
8280;BME280;8335;42.646;23.380;2023-03-21T08:29:32;146020.13;;;18.02;44.50
8280;BME280;8335;42.646;23.380;2023-03-21T08:32:05;146037.63;;;18.09;43.78
8280;BME280;8335;42.646;23.380;2023-03-21T08:34:31;146035.13;;;18.08;43.31
8280;BME280;8335;42.646;23.380;2023-03-21T08:36:59;145986.34;;;17.88;44.45
8280;BME280;8335;42.646;23.380;2023-03-21T08:39:26;145973.84;;;17.83;44.16
8280;BME280;8335;42.646;23.380;2023-03-21T08:41:53;145977.59;;;17.84;43.61
8280;BME280;8335;42.646;23.380;2023-03-21T08:44:20;145962.56;;;17.78;44.80
8280;BME280;8335;42.646;23.380;2023-03-21T08:46:48;145962.56;;;17.78;44.95
8280;BME280;8335;42.646;23.380;2023-03-21T08:49:15;145976.34;;;17.84;44.97
8280;BME280;8335;42.646;23.380;2023-03-21T08:51:41;145970.09;;;17.81;44.04
8280;BME280;8335;42.646;23.380;2023-03-21T08:54:17;145893.81;;;17.50;43.90
8280;BME280;8335;42.646;23.380;2023-03-21T08:56:45;145846.31;;;17.31;44.90
8280;BME280;8335;42.646;23.380;2023-03-21T08:59:11;145836.31;;;17.27;45.74
8280;BME280;8335;42.646;23.380;2023-03-21T09:01:38;145801.31;;;17.13;45.73
8280;BME280;8335;42.646;23.380;2023-03-21T09:04:06;145776.34;;;17.02;45.22
8280;BME280;8335;42.646;23.380;2023-03-21T09:06:35;145811.34;;;17.17;45.04
8280;BME280;8335;42.646;23.380;2023-03-21T09:09:02;145837.56;;;17.27;45.12
8280;BME280;8335;42.646;23.380;2023-03-21T09:11:30;145855.03;;;17.34;45.29
8280;BME280;8335;42.646;23.380;2023-03-21T09:13:57;145863.81;;;17.38;44.49
8280;BME280;8335;42.646;23.380;2023-03-21T09:16:23;145870.03;;;17.41;44.73
8280;BME280;8335;42.646;23.380;2023-03-21T09:18:50;145872.53;;;17.42;43.71
8280;BME280;8335;42.646;23.380;2023-03-21T09:21:21;145851.31;;;17.33;43.87
8280;BME280;8335;42.646;23.380;2023-03-21T09:23:49;145857.53;;;17.36;43.80
8280;BME280;8335;42.646;23.380;2023-03-21T09:26:17;145848.81;;;17.32;43.91
8280;BME280;8335;42.646;23.380;2023-03-21T09:28:45;145852.56;;;17.33;43.52
8280;BME280;8335;42.646;23.380;2023-03-21T09:31:12;145848.81;;;17.32;43.55
8280;BME280;8335;42.646;23.380;2023-03-21T09:33:41;145846.31;;;17.31;43.33
8280;BME280;8335;42.646;23.380;2023-03-21T09:36:09;145872.53;;;17.42;43.41
8280;BME280;8335;42.646;23.380;2023-03-21T09:38:39;145888.78;;;17.48;42.69
8280;BME280;8335;42.646;23.380;2023-03-21T09:41:19;145930.06;;;17.65;42.12
8280;BME280;8335;42.646;23.380;2023-03-21T09:43:58;146005.09;;;17.96;41.72
8280;BME280;8335;42.646;23.380;2023-03-21T09:46:35;146035.13;;;18.08;40.92
8280;BME280;8335;42.646;23.380;2023-03-21T09:49:10;146071.38;;;18.23;41.05
8280;BME280;8335;42.646;23.380;2023-03-21T09:51:43;146107.66;;;18.37;42.44
8280;BME280;8335;42.646;23.380;2023-03-21T09:54:17;146146.41;;;18.53;42.05
8280;BME280;8335;42.646;23.380;2023-03-21T09:56:48;146160.19;;;18.59;41.43
8280;BME280;8335;42.646;23.380;2023-03-21T09:59:21;146171.41;;;18.63;41.80
8280;BME280;8335;42.646;23.380;2023-03-21T10:01:50;146196.50;;;18.74;41.59
8280;BME280;8335;42.646;23.380;2023-03-21T10:04:19;146183.97;;;18.68;41.78
8280;BME280;8335;42.646;23.380;2023-03-21T10:06:52;146181.47;;;18.67;41.73
8280;BME280;8335;42.646;23.380;2023-03-21T10:09:24;146194.00;;;18.73;42.00
8280;BME280;8335;42.646;23.380;2023-03-21T10:11:55;146197.75;;;18.74;41.79
8280;BME280;8335;42.646;23.380;2023-03-21T10:14:27;146269.06;;;19.03;41.32
8280;BME280;8335;42.646;23.380;2023-03-21T10:16:57;146371.69;;;19.45;41.18
8280;BME280;8335;42.646;23.380;2023-03-21T10:19:26;146455.59;;;19.79;40.25
8280;BME280;8335;42.646;23.380;2023-03-21T10:21:53;146508.19;;;20.00;39.14
8280;BME280;8335;42.646;23.380;2023-03-21T10:24:23;146540.72;;;20.14;38.88
8280;BME280;8335;42.646;23.380;2023-03-21T10:26:52;146516.94;;;20.04;38.82
8280;BME280;8335;42.646;23.380;2023-03-21T10:29:22;146574.53;;;20.27;38.32
8280;BME280;8335;42.646;23.380;2023-03-21T10:31:51;146640.97;;;20.54;37.59
8280;BME280;8335;42.646;23.380;2023-03-21T10:34:24;146796.31;;;21.17;36.71
8280;BME280;8335;42.646;23.380;2023-03-21T10:36:53;146896.66;;;21.58;36.40
8280;BME280;8335;42.646;23.380;2023-03-21T10:39:26;146993.16;;;21.97;35.55
8280;BME280;8335;42.646;23.380;2023-03-21T10:41:53;147000.72;;;22.01;35.14
8280;BME280;8335;42.646;23.380;2023-03-21T10:44:20;146927.97;;;21.71;35.12
8280;BME280;8335;42.646;23.380;2023-03-21T10:46:51;146746.19;;;20.97;34.34
8280;BME280;8335;42.646;23.380;2023-03-21T10:49:19;146698.56;;;20.78;35.52
8280;BME280;8335;42.646;23.380;2023-03-21T10:51:48;146707.38;;;20.81;35.33
8280;BME280;8335;42.646;23.380;2023-03-21T10:54:18;146687.34;;;20.73;34.29
8280;BME280;8335;42.646;23.380;2023-03-21T10:56:55;146704.88;;;20.80;34.20
8280;BME280;8335;42.646;23.380;2023-03-21T10:59:24;146722.41;;;20.87;34.27
8280;BME280;8335;42.646;23.380;2023-03-21T11:01:54;146729.91;;;20.91;34.09
8280;BME280;8335;42.646;23.380;2023-03-21T11:04:25;146632.22;;;20.51;34.08
8280;BME280;8335;42.646;23.380;2023-03-21T11:06:54;146642.22;;;20.55;34.42
8280;BME280;8335;42.646;23.380;2023-03-21T11:09:24;146620.94;;;20.46;34.90
8280;BME280;8335;42.646;23.380;2023-03-21T11:12:00;146529.47;;;20.09;34.83
8280;BME280;8335;42.646;23.380;2023-03-21T11:14:34;146453.06;;;19.78;35.07
8280;BME280;8335;42.646;23.380;2023-03-21T11:17:14;146484.38;;;19.91;35.42
8280;BME280;8335;42.646;23.380;2023-03-21T11:19:46;146526.97;;;20.08;35.80
8280;BME280;8335;42.646;23.380;2023-03-21T11:22:14;146544.50;;;20.15;35.28
8280;BME280;8335;42.646;23.380;2023-03-21T11:24:43;146558.25;;;20.21;35.31
8280;BME280;8335;42.646;23.380;2023-03-21T11:27:14;146584.56;;;20.31;35.69
8280;BME280;8335;42.646;23.380;2023-03-21T11:29:45;146538.22;;;20.13;35.33
8280;BME280;8335;42.646;23.380;2023-03-21T11:32:20;146578.31;;;20.29;35.79
8280;BME280;8335;42.646;23.380;2023-03-21T11:34:49;146580.81;;;20.30;34.76
8280;BME280;8335;42.646;23.380;2023-03-21T11:37:21;146553.25;;;20.19;34.84
8280;BME280;8335;42.646;23.380;2023-03-21T11:39:55;146550.75;;;20.18;34.06
8280;BME280;8335;42.646;23.380;2023-03-21T11:42:29;146577.03;;;20.28;34.63
8280;BME280;8335;42.646;23.380;2023-03-21T11:45:00;146500.66;;;19.97;34.14
8280;BME280;8335;42.646;23.380;2023-03-21T11:47:27;146484.38;;;19.91;34.96
8280;BME280;8335;42.646;23.380;2023-03-21T11:49:55;146510.69;;;20.01;34.33
8280;BME280;8335;42.646;23.380;2023-03-21T11:52:27;146484.38;;;19.91;34.53
8280;BME280;8335;42.646;23.380;2023-03-21T11:55:17;146451.81;;;19.77;34.97
8280;BME280;8335;42.646;23.380;2023-03-21T11:57:58;146480.63;;;19.89;34.60
8280;BME280;8335;42.646;23.380;2023-03-21T12:00:36;146443.09;;;19.74;34.00
8280;BME280;8335;42.646;23.380;2023-03-21T12:03:27;146469.34;;;19.85;34.00
8280;BME280;8335;42.646;23.380;2023-03-21T12:05:59;146518.19;;;20.04;33.76
8280;BME280;8335;42.646;23.380;2023-03-21T12:08:34;146525.72;;;20.08;34.45
8280;BME280;8335;42.646;23.380;2023-03-21T12:11:10;146535.72;;;20.12;33.94
8280;BME280;8335;42.646;23.380;2023-03-21T12:13:46;146513.19;;;20.02;35.33
8280;BME280;8335;42.646;23.380;2023-03-21T12:16:29;146509.44;;;20.01;34.34
8280;BME280;8335;42.646;23.380;2023-03-21T12:19:09;146404.28;;;19.58;34.98
8280;BME280;8335;42.646;23.380;2023-03-21T12:21:44;146335.41;;;19.30;35.50
8280;BME280;8335;42.646;23.380;2023-03-21T12:24:18;146312.84;;;19.21;35.19
8280;BME280;8335;42.646;23.380;2023-03-21T12:26:55;146321.63;;;19.24;35.43
8280;BME280;8335;42.646;23.380;2023-03-21T12:29:44;146327.84;;;19.27;34.70
8280;BME280;8335;42.646;23.380;2023-03-21T12:32:20;146344.13;;;19.34;34.72
8280;BME280;8335;42.646;23.380;2023-03-21T12:35:14;146302.84;;;19.17;34.69
8280;BME280;8335;42.646;23.380;2023-03-21T12:37:52;146357.91;;;19.39;35.48
8280;BME280;8335;42.646;23.380;2023-03-21T12:40:37;146401.75;;;19.57;34.59
8280;BME280;8335;42.646;23.380;2023-03-21T12:43:19;146312.84;;;19.21;34.61
8280;BME280;8335;42.646;23.380;2023-03-21T12:45:54;146254.03;;;18.97;34.77
8280;BME280;8335;42.646;23.380;2023-03-21T12:48:29;146257.78;;;18.98;35.13
8280;BME280;8335;42.646;23.380;2023-03-21T12:51:01;146282.84;;;19.09;34.91
8280;BME280;8335;42.646;23.380;2023-03-21T12:53:38;146332.91;;;19.29;34.98
8280;BME280;8335;42.646;23.380;2023-03-21T12:56:10;146266.56;;;19.02;35.35
8280;BME280;8335;42.646;23.380;2023-03-21T12:58:44;146265.31;;;19.02;35.36
8280;BME280;8335;42.646;23.380;2023-03-21T13:01:14;146231.53;;;18.88;35.76
8280;BME280;8335;42.646;23.380;2023-03-21T13:03:45;146246.56;;;18.94;35.77
8280;BME280;8335;42.646;23.380;2023-03-21T13:06:16;146305.34;;;19.18;36.11
8280;BME280;8335;42.646;23.380;2023-03-21T13:08:46;146289.06;;;19.11;35.82
8280;BME280;8335;42.646;23.380;2023-03-21T13:11:17;146322.88;;;19.25;35.09
8280;BME280;8335;42.646;23.380;2023-03-21T13:13:49;146356.66;;;19.39;35.30
8280;BME280;8335;42.646;23.380;2023-03-21T13:16:21;146382.91;;;19.49;35.33
8280;BME280;8335;42.646;23.380;2023-03-21T13:18:56;146390.47;;;19.52;35.54
8280;BME280;8335;42.646;23.380;2023-03-21T13:21:40;146395.44;;;19.55;35.46